sensor_id;sensor_type;location;lat;lon;timestamp;pressure;altitude;pressure_sealevel;temperature;humidity
14204;BME280;7185;51.854;6.622;2022-12-01T00:00:18;102391.94;;;7.42;100.00
14204;BME280;7185;51.854;6.622;2022-12-01T00:02:50;102391.91;;;7.41;100.00
14204;BME280;7185;51.854;6.622;2022-12-01T00:05:22;102391.63;;;7.28;100.00
14204;BME280;7185;51.854;6.622;2022-12-01T00:07:54;102389.75;;;7.24;100.00
14204;BME280;7185;51.854;6.622;2022-12-01T00:10:28;102387.09;;;7.21;100.00
14204;BME280;7185;51.854;6.622;2022-12-01T00:13:00;102387.28;;;7.29;100.00
14204;BME280;7185;51.854;6.622;2022-12-01T00:15:34;102388.38;;;7.39;100.00
14204;BME280;7185;51.854;6.622;2022-12-01T00:18:05;102386.59;;;7.38;100.00
14204;BME280;7185;51.854;6.622;2022-12-01T00:20:37;102384.00;;;7.38;100.00
14204;BME280;7185;51.854;6.622;2022-12-01T00:23:11;102385.63;;;7.32;100.00
14204;BME280;7185;51.854;6.622;2022-12-01T00:25:42;102386.41;;;7.28;100.00
14204;BME280;7185;51.854;6.622;2022-12-01T00:28:14;102382.88;;;7.26;100.00
14204;BME280;7185;51.854;6.622;2022-12-01T00:30:45;102385.63;;;7.32;100.00
14204;BME280;7185;51.854;6.622;2022-12-01T00:33:17;102383.84;;;7.31;100.00
14204;BME280;7185;51.854;6.622;2022-12-01T00:35:49;102388.06;;;7.25;100.00
14204;BME280;7185;51.854;6.622;2022-12-01T00:38:21;102386.41;;;7.28;100.00
14204;BME280;7185;51.854;6.622;2022-12-01T00:40:53;102387.94;;;7.20;100.00
14204;BME280;7185;51.854;6.622;2022-12-01T00:43:25;102388.94;;;7.25;100.00
14204;BME280;7185;51.854;6.622;2022-12-01T00:45:56;102389.84;;;7.27;100.00
14204;BME280;7185;51.854;6.622;2022-12-01T00:48:28;102393.53;;;7.36;100.00
14204;BME280;7185;51.854;6.622;2022-12-01T00:51:00;102392.44;;;7.26;100.00
14204;BME280;7185;51.854;6.622;2022-12-01T00:53:33;102386.50;;;7.33;100.00
14204;BME280;7185;51.854;6.622;2022-12-01T00:56:05;102391.53;;;7.25;100.00
14204;BME280;7185;51.854;6.622;2022-12-01T00:58:38;102388.00;;;7.23;100.00
14204;BME280;7185;51.854;6.622;2022-12-01T01:01:09;102394.94;;;7.21;100.00
14204;BME280;7185;51.854;6.622;2022-12-01T01:03:41;102393.16;;;7.20;100.00
14204;BME280;7185;51.854;6.622;2022-12-01T01:06:13;102388.06;;;7.25;100.00
14204;BME280;7185;51.854;6.622;2022-12-01T01:08:46;102403.84;;;7.29;100.00
14204;BME280;7185;51.854;6.622;2022-12-01T01:11:17;102394.94;;;7.23;100.00
14204;BME280;7185;51.854;6.622;2022-12-01T01:13:49;102400.28;;;7.27;100.00
14204;BME280;7185;51.854;6.622;2022-12-01T01:16:21;102396.75;;;7.25;100.00
14204;BME280;7185;51.854;6.622;2022-12-01T01:18:52;102402.06;;;7.28;100.00
14204;BME280;7185;51.854;6.622;2022-12-01T01:21:25;102408.81;;;7.20;100.00
14204;BME280;7185;51.854;6.622;2022-12-01T01:23:59;102403.63;;;7.22;100.00
14204;BME280;7185;51.854;6.622;2022-12-01T01:26:31;102405.28;;;7.18;100.00
14204;BME280;7185;51.854;6.622;2022-12-01T01:29:04;102408.03;;;7.24;100.00
14204;BME280;7185;51.854;6.622;2022-12-01T01:31:37;102407.84;;;7.16;100.00
14204;BME280;7185;51.854;6.622;2022-12-01T01:34:08;102415.69;;;7.16;100.00
14204;BME280;7185;51.854;6.622;2022-12-01T01:36:40;102412.09;;;7.13;100.00
14204;BME280;7185;51.854;6.622;2022-12-01T01:39:13;102419.38;;;7.25;100.00
14204;BME280;7185;51.854;6.622;2022-12-01T01:41:45;102415.09;;;7.28;100.00
14204;BME280;7185;51.854;6.622;2022-12-01T01:44:41;102416.00;;;7.30;100.00
14204;BME280;7185;51.854;6.622;2022-12-01T01:47:20;102416.22;;;7.40;100.00
14204;BME280;7185;51.854;6.622;2022-12-01T01:49:53;102419.63;;;7.36;100.00
14204;BME280;7185;51.854;6.622;2022-12-01T01:52:26;102423.81;;;7.29;100.00
14204;BME280;7185;51.854;6.622;2022-12-01T01:55:00;102420.22;;;7.25;100.00
14204;BME280;7185;51.854;6.622;2022-12-01T01:57:32;102419.41;;;7.26;100.00
14204;BME280;7185;51.854;6.622;2022-12-01T02:00:08;102422.94;;;7.28;100.00
14204;BME280;7185;51.854;6.622;2022-12-01T02:02:41;102418.75;;;7.37;100.00
14204;BME280;7185;51.854;6.622;2022-12-01T02:05:18;102417.91;;;7.38;100.00
14204;BME280;7185;51.854;6.622;2022-12-01T02:07:54;102411.56;;;7.26;100.00
14204;BME280;7185;51.854;6.622;2022-12-01T02:10:40;102412.78;;;7.41;100.00
14204;BME280;7185;51.854;6.622;2022-12-01T02:13:22;102417.47;;;7.19;100.00
14204;BME280;7185;51.854;6.622;2022-12-01T02:16:04;102416.16;;;7.37;100.00
14204;BME280;7185;51.854;6.622;2022-12-01T02:18:50;102410.94;;;7.37;100.00
14204;BME280;7185;51.854;6.622;2022-12-01T02:21:31;102414.41;;;7.36;100.00
14204;BME280;7185;51.854;6.622;2022-12-01T02:27:41;102421.53;;;7.43;100.00
14204;BME280;7185;51.854;6.622;2022-12-01T02:30:26;102417.78;;;7.31;100.00
14204;BME280;7185;51.854;6.622;2022-12-01T02:33:04;102418.03;;;7.42;100.00
14204;BME280;7185;51.854;6.622;2022-12-01T02:35:44;102417.72;;;7.28;100.00
14204;BME280;7185;51.854;6.622;2022-12-01T02:38:23;102417.09;;;7.40;100.00
14204;BME280;7185;51.854;6.622;2022-12-01T02:41:00;102412.56;;;7.31;100.00
14204;BME280;7185;51.854;6.622;2022-12-01T02:43:40;102412.66;;;7.36;100.00
14204;BME280;7185;51.854;6.622;2022-12-01T02:46:19;102420.59;;;7.39;100.00
14204;BME280;7185;51.854;6.622;2022-12-01T02:48:55;102419.84;;;7.45;100.00
14204;BME280;7185;51.854;6.622;2022-12-01T02:54:02;102411.09;;;7.43;100.00
14204;BME280;7185;51.854;6.622;2022-12-01T02:56:35;102409.28;;;7.40;100.00
14204;BME280;7185;51.854;6.622;2022-12-01T02:59:08;102411.09;;;7.43;100.00
14204;BME280;7185;51.854;6.622;2022-12-01T03:01:57;102409.97;;;7.33;100.00
14204;BME280;7185;51.854;6.622;2022-12-01T03:04:42;102405.78;;;7.40;100.00
14204;BME280;7185;51.854;6.622;2022-12-01T03:07:30;102412.81;;;7.42;100.00
14204;BME280;7185;51.854;6.622;2022-12-01T03:10:11;102414.28;;;7.31;100.00
14204;BME280;7185;51.854;6.622;2022-12-01T03:12:56;102419.53;;;7.32;100.00
14204;BME280;7185;51.854;6.622;2022-12-01T03:15:35;102416.81;;;7.28;100.00
14204;BME280;7185;51.854;6.622;2022-12-01T03:18:17;102422.00;;;7.26;100.00
14204;BME280;7185;51.854;6.622;2022-12-01T03:20:57;102419.41;;;7.26;100.00
14204;BME280;7185;51.854;6.622;2022-12-01T03:23:32;102410.63;;;7.24;100.00
14204;BME280;7185;51.854;6.622;2022-12-01T03:26:08;102408.97;;;7.26;100.00
14204;BME280;7185;51.854;6.622;2022-12-01T03:28:45;102412.25;;;7.19;100.00
14204;BME280;7185;51.854;6.622;2022-12-01T03:31:22;102410.56;;;7.21;100.00
14204;BME280;7185;51.854;6.622;2022-12-01T03:33:59;102410.50;;;7.18;100.00
14204;BME280;7185;51.854;6.622;2022-12-01T03:36:36;102415.56;;;7.12;100.00
14204;BME280;7185;51.854;6.622;2022-12-01T03:39:12;102413.81;;;7.12;100.00
14204;BME280;7185;51.854;6.622;2022-12-01T03:41:50;102417.22;;;7.10;100.00
14204;BME280;7185;51.854;6.622;2022-12-01T03:44:28;102414.44;;;7.02;100.00
14204;BME280;7185;51.854;6.622;2022-12-01T03:47:03;102414.50;;;7.05;100.00
14204;BME280;7185;51.854;6.622;2022-12-01T03:49:38;102416.41;;;7.11;100.00
14204;BME280;7185;51.854;6.622;2022-12-01T03:52:17;102406.94;;;7.16;100.00
14204;BME280;7185;51.854;6.622;2022-12-01T03:54:56;102419.81;;;7.08;100.00
14204;BME280;7185;51.854;6.622;2022-12-01T03:57:33;102419.09;;;7.14;100.00
14204;BME280;7185;51.854;6.622;2022-12-01T04:00:09;102415.53;;;7.10;100.00
14204;BME280;7185;51.854;6.622;2022-12-01T04:02:42;102418.75;;;7.01;100.00
14204;BME280;7185;51.854;6.622;2022-12-01T04:05:15;102421.16;;;7.27;100.00
14204;BME280;7185;51.854;6.622;2022-12-01T04:07:46;102427.25;;;7.28;100.00
14204;BME280;7185;51.854;6.622;2022-12-01T04:10:18;102430.28;;;7.45;100.00
14204;BME280;7185;51.854;6.622;2022-12-01T04:12:50;102437.41;;;7.17;100.00
14204;BME280;7185;51.854;6.622;2022-12-01T04:15:27;102436.81;;;7.27;100.00
14204;BME280;7185;51.854;6.622;2022-12-01T04:17:59;102432.59;;;7.32;100.00
14204;BME280;7185;51.854;6.622;2022-12-01T04:20:32;102433.91;;;7.50;100.00
14204;BME280;7185;51.854;6.622;2022-12-01T04:23:04;102437.41;;;7.17;100.00
14204;BME280;7185;51.854;6.622;2022-12-01T04:25:35;102435.81;;;7.22;100.00
14204;BME280;7185;51.854;6.622;2022-12-01T04:28:07;102437.56;;;7.23;100.00
14204;BME280;7185;51.854;6.622;2022-12-01T04:30:38;102428.78;;;7.20;100.00
14204;BME280;7185;51.854;6.622;2022-12-01T04:33:10;102429.75;;;7.23;100.00
14204;BME280;7185;51.854;6.622;2022-12-01T04:35:43;102429.69;;;7.20;100.00
14204;BME280;7185;51.854;6.622;2022-12-01T04:38:14;102425.75;;;7.02;100.00
14204;BME280;7185;51.854;6.622;2022-12-01T04:40:46;102427.66;;;7.10;100.00
14204;BME280;7185;51.854;6.622;2022-12-01T04:43:18;102424.22;;;7.11;100.00
14204;BME280;7185;51.854;6.622;2022-12-01T04:45:49;102424.22;;;7.11;100.00
14204;BME280;7185;51.854;6.622;2022-12-01T04:48:21;102426.00;;;7.12;100.00
14204;BME280;7185;51.854;6.622;2022-12-01T04:50:54;102423.38;;;7.12;100.00
14204;BME280;7185;51.854;6.622;2022-12-01T04:53:25;102423.19;;;7.04;100.00
14204;BME280;7185;51.854;6.622;2022-12-01T04:55:58;102424.22;;;7.11;100.00
14204;BME280;7185;51.854;6.622;2022-12-01T04:58:32;102426.78;;;7.08;100.00
14204;BME280;7185;51.854;6.622;2022-12-01T05:01:05;102428.41;;;7.04;100.00
14204;BME280;7185;51.854;6.622;2022-12-01T05:03:38;102430.50;;;7.17;100.00
14204;BME280;7185;51.854;6.622;2022-12-01T05:06:13;102432.88;;;7.10;100.00
14204;BME280;7185;51.854;6.622;2022-12-01T05:08:45;102427.81;;;7.16;100.00
14204;BME280;7185;51.854;6.622;2022-12-01T05:11:17;102430.22;;;7.07;100.00
14204;BME280;7185;51.854;6.622;2022-12-01T05:13:49;102429.28;;;7.05;100.00
14204;BME280;7185;51.854;6.622;2022-12-01T05:16:22;102429.31;;;7.06;100.00
14204;BME280;7185;51.854;6.622;2022-12-01T05:18:56;102427.47;;;7.02;100.00
14204;BME280;7185;51.854;6.622;2022-12-01T05:21:44;102429.38;;;7.08;100.00
14204;BME280;7185;51.854;6.622;2022-12-01T05:24:19;102435.31;;;7.02;100.00
14204;BME280;7185;51.854;6.622;2022-12-01T05:26:51;102436.28;;;7.06;100.00
14204;BME280;7185;51.854;6.622;2022-12-01T05:29:22;102434.50;;;7.05;100.00
14204;BME280;7185;51.854;6.622;2022-12-01T05:31:54;102435.16;;;6.96;100.00
14204;BME280;7185;51.854;6.622;2022-12-01T05:34:25;102425.72;;;7.01;100.00
14204;BME280;7185;51.854;6.622;2022-12-01T05:36:58;102429.03;;;6.95;100.00
14204;BME280;7185;51.854;6.622;2022-12-01T05:39:30;102429.78;;;6.90;100.00
14204;BME280;7185;51.854;6.622;2022-12-01T05:42:02;102432.31;;;6.88;100.00
14204;BME280;7185;51.854;6.622;2022-12-01T05:44:33;102424.50;;;6.88;100.00
14204;BME280;7185;51.854;6.622;2022-12-01T05:47:05;102425.53;;;6.93;100.00
14204;BME280;7185;51.854;6.622;2022-12-01T05:49:36;102427.34;;;6.97;100.00
14204;BME280;7185;51.854;6.622;2022-12-01T05:52:09;102426.69;;;7.05;100.00
14204;BME280;7185;51.854;6.622;2022-12-01T05:54:41;102434.84;;;6.83;100.00
14204;BME280;7185;51.854;6.622;2022-12-01T05:57:13;102434.25;;;6.95;100.00
14204;BME280;7185;51.854;6.622;2022-12-01T05:59:44;102428.97;;;6.92;100.00
14204;BME280;7185;51.854;6.622;2022-12-01T06:02:16;102425.53;;;6.93;100.00
14204;BME280;7185;51.854;6.622;2022-12-01T06:04:48;102428.19;;;6.96;100.00
14204;BME280;7185;51.854;6.622;2022-12-01T06:07:21;102422.28;;;7.04;100.00
14204;BME280;7185;51.854;6.622;2022-12-01T06:09:54;102417.69;;;6.93;100.00
14204;BME280;7185;51.854;6.622;2022-12-01T06:12:26;102433.34;;;6.93;100.00
14204;BME280;7185;51.854;6.622;2022-12-01T06:14:58;102432.31;;;6.88;100.00
14204;BME280;7185;51.854;6.622;2022-12-01T06:17:29;102435.88;;;6.90;100.00
14204;BME280;7185;51.854;6.622;2022-12-01T06:20:01;102430.50;;;6.84;100.00
14204;BME280;7185;51.854;6.622;2022-12-01T06:22:34;102434.88;;;6.85;100.00
14204;BME280;7185;51.854;6.622;2022-12-01T06:25:06;102431.47;;;6.89;100.00
14204;BME280;7185;51.854;6.622;2022-12-01T06:27:38;102429.00;;;6.94;100.00
14204;BME280;7185;51.854;6.622;2022-12-01T06:30:10;102439.72;;;7.05;100.00
14204;BME280;7185;51.854;6.622;2022-12-01T06:32:42;102448.91;;;6.90;100.00
14204;BME280;7185;51.854;6.622;2022-12-01T06:35:14;102446.13;;;6.84;100.00
14204;BME280;7185;51.854;6.622;2022-12-01T06:37:47;102442.03;;;6.94;100.00
14204;BME280;7185;51.854;6.622;2022-12-01T06:40:19;102447.97;;;6.88;100.00
14204;BME280;7185;51.854;6.622;2022-12-01T06:42:50;102445.06;;;6.77;100.00
14204;BME280;7185;51.854;6.622;2022-12-01T06:45:22;102454.88;;;6.86;100.00
14204;BME280;7185;51.854;6.622;2022-12-01T06:47:53;102454.13;;;6.90;100.00
14204;BME280;7185;51.854;6.622;2022-12-01T06:50:25;102457.78;;;6.97;100.00
14204;BME280;7185;51.854;6.622;2022-12-01T06:52:58;102457.44;;;6.84;100.00
14204;BME280;7185;51.854;6.622;2022-12-01T06:55:30;102457.63;;;6.91;100.00
14204;BME280;7185;51.854;6.622;2022-12-01T06:58:02;102468.81;;;6.88;100.00
14204;BME280;7185;51.854;6.622;2022-12-01T07:00:33;102472.31;;;6.87;100.00
14204;BME280;7185;51.854;6.622;2022-12-01T07:03:05;102461.88;;;6.87;100.00
14204;BME280;7185;51.854;6.622;2022-12-01T07:05:36;102463.63;;;6.88;100.00
14204;BME280;7185;51.854;6.622;2022-12-01T07:08:09;102462.09;;;6.96;100.00
14204;BME280;7185;51.854;6.622;2022-12-01T07:10:41;102464.72;;;6.96;100.00
14204;BME280;7185;51.854;6.622;2022-12-01T07:13:13;102461.38;;;7.02;100.00
14204;BME280;7185;51.854;6.622;2022-12-01T07:15:44;102465.69;;;7.01;100.00
14204;BME280;7185;51.854;6.622;2022-12-01T07:18:16;102464.69;;;6.95;100.00
14204;BME280;7185;51.854;6.622;2022-12-01T07:20:47;102474.19;;;6.94;100.00
14204;BME280;7185;51.854;6.622;2022-12-01T07:23:20;102473.22;;;6.89;100.00
14204;BME280;7185;51.854;6.622;2022-12-01T07:25:57;102475.75;;;6.86;100.00
14204;BME280;7185;51.854;6.622;2022-12-01T07:28:28;102477.53;;;6.87;100.00
14204;BME280;7185;51.854;6.622;2022-12-01T07:31:01;102475.91;;;6.92;100.00
14204;BME280;7185;51.854;6.622;2022-12-01T07:33:34;102489.69;;;6.88;100.00
14204;BME280;7185;51.854;6.622;2022-12-01T07:36:07;102482.81;;;6.90;100.00
14204;BME280;7185;51.854;6.622;2022-12-01T07:38:41;102483.47;;;6.83;100.00
14204;BME280;7185;51.854;6.622;2022-12-01T07:41:15;102481.66;;;6.80;100.00
14204;BME280;7185;51.854;6.622;2022-12-01T07:43:54;102484.19;;;6.77;100.00
14204;BME280;7185;51.854;6.622;2022-12-01T07:46:26;102489.81;;;6.93;100.00
14204;BME280;7185;51.854;6.622;2022-12-01T07:48:58;102487.16;;;6.90;100.00
14204;BME280;7185;51.854;6.622;2022-12-01T07:51:29;102486.34;;;6.92;100.00
14204;BME280;7185;51.854;6.622;2022-12-01T07:54:03;102481.97;;;6.91;100.00
14204;BME280;7185;51.854;6.622;2022-12-01T07:56:36;102487.44;;;7.00;100.00
14204;BME280;7185;51.854;6.622;2022-12-01T07:59:07;102489.94;;;6.97;100.00
14204;BME280;7185;51.854;6.622;2022-12-01T08:01:39;102483.19;;;7.04;100.00
14204;BME280;7185;51.854;6.622;2022-12-01T08:04:18;102482.97;;;6.96;100.00
14204;BME280;7185;51.854;6.622;2022-12-01T08:06:49;102492.19;;;6.83;100.00
14204;BME280;7185;51.854;6.622;2022-12-01T08:09:23;102485.72;;;7.02;100.00
14204;BME280;7185;51.854;6.622;2022-12-01T08:11:54;102491.28;;;6.83;100.00
14204;BME280;7185;51.854;6.622;2022-12-01T08:14:26;102488.19;;;6.96;100.00
14204;BME280;7185;51.854;6.622;2022-12-01T08:16:57;102488.19;;;6.96;100.00
14204;BME280;7185;51.854;6.622;2022-12-01T08:19:32;102492.66;;;7.00;100.00
14204;BME280;7185;51.854;6.622;2022-12-01T08:22:04;102496.13;;;7.01;100.00
14204;BME280;7185;51.854;6.622;2022-12-01T08:24:37;102495.31;;;7.04;100.00
14204;BME280;7185;51.854;6.622;2022-12-01T08:27:08;102493.13;;;7.19;100.00
14204;BME280;7185;51.854;6.622;2022-12-01T08:29:40;102499.44;;;7.27;100.00
14204;BME280;7185;51.854;6.622;2022-12-01T08:32:11;102499.50;;;7.30;100.00
14204;BME280;7185;51.854;6.622;2022-12-01T08:34:51;102501.22;;;7.28;100.00
14204;BME280;7185;51.854;6.622;2022-12-01T08:37:22;102506.44;;;7.28;100.00
14204;BME280;7185;51.854;6.622;2022-12-01T08:39:55;102505.78;;;7.37;100.00
14204;BME280;7185;51.854;6.622;2022-12-01T08:42:27;102508.22;;;7.31;100.00
14204;BME280;7185;51.854;6.622;2022-12-01T08:44:58;102511.81;;;7.34;100.00
14204;BME280;7185;51.854;6.622;2022-12-01T08:47:30;102503.88;;;7.31;100.00
14204;BME280;7185;51.854;6.622;2022-12-01T08:50:07;102513.47;;;7.32;100.00
14204;BME280;7185;51.854;6.622;2022-12-01T08:52:40;102504.13;;;7.41;100.00
14204;BME280;7185;51.854;6.622;2022-12-01T08:55:13;102509.38;;;7.42;100.00
14204;BME280;7185;51.854;6.622;2022-12-01T08:57:44;102509.34;;;7.41;100.00
14204;BME280;7185;51.854;6.622;2022-12-01T09:00:16;102509.47;;;7.45;100.00
14204;BME280;7185;51.854;6.622;2022-12-01T09:02:48;102498.28;;;7.51;100.00
14204;BME280;7185;51.854;6.622;2022-12-01T09:05:19;102500.94;;;7.53;100.00
14204;BME280;7185;51.854;6.622;2022-12-01T09:07:51;102501.06;;;7.57;100.00
14204;BME280;7185;51.854;6.622;2022-12-01T09:10:50;102507.19;;;7.59;100.00
14204;BME280;7185;51.854;6.622;2022-12-01T09:13:22;102504.69;;;7.64;100.00
14204;BME280;7185;51.854;6.622;2022-12-01T09:15:55;102501.75;;;7.50;100.00
14204;BME280;7185;51.854;6.622;2022-12-01T09:18:28;102505.53;;;7.63;100.00
14204;BME280;7185;51.854;6.622;2022-12-01T09:21:08;102498.59;;;7.63;100.00
14204;BME280;7185;51.854;6.622;2022-12-01T09:23:40;102508.97;;;7.60;100.00
14204;BME280;7185;51.854;6.622;2022-12-01T09:26:14;102517.47;;;7.53;100.00
14204;BME280;7185;51.854;6.622;2022-12-01T09:28:48;102514.56;;;7.76;100.00
14204;BME280;7185;51.854;6.622;2022-12-01T09:31:21;102504.28;;;7.84;100.00
14204;BME280;7185;51.854;6.622;2022-12-01T09:33:55;102514.28;;;7.63;100.00
14204;BME280;7185;51.854;6.622;2022-12-01T09:36:28;102512.75;;;7.73;100.00
14204;BME280;7185;51.854;6.622;2022-12-01T09:39:00;102513.66;;;7.75;100.00
14204;BME280;7185;51.854;6.622;2022-12-01T09:41:36;102509.38;;;7.77;100.00
14204;BME280;7185;51.854;6.622;2022-12-01T09:44:14;102509.41;;;7.79;100.00
14204;BME280;7185;51.854;6.622;2022-12-01T09:46:52;102518.34;;;7.89;100.00
14204;BME280;7185;51.854;6.622;2022-12-01T09:49:38;102511.25;;;7.83;100.00
14204;BME280;7185;51.854;6.622;2022-12-01T09:52:14;102509.75;;;7.94;100.00
14204;BME280;7185;51.854;6.622;2022-12-01T09:54:46;102512.88;;;7.78;100.00
14204;BME280;7185;51.854;6.622;2022-12-01T09:57:28;102508.69;;;7.86;100.00
14204;BME280;7185;51.854;6.622;2022-12-01T10:00:04;102507.00;;;7.88;100.00
14204;BME280;7185;51.854;6.622;2022-12-01T10:02:39;102502.56;;;7.84;100.00
14204;BME280;7185;51.854;6.622;2022-12-01T10:05:14;102500.66;;;7.77;100.00
14204;BME280;7185;51.854;6.622;2022-12-01T10:07:52;102502.56;;;7.84;100.00
14204;BME280;7185;51.854;6.622;2022-12-01T10:10:28;102502.56;;;7.84;100.00
14204;BME280;7185;51.854;6.622;2022-12-01T10:13:07;102496.25;;;7.74;100.00
14204;BME280;7185;51.854;6.622;2022-12-01T10:15:50;102502.34;;;7.75;100.00
14204;BME280;7185;51.854;6.622;2022-12-01T10:18:34;102503.97;;;7.70;100.00
14204;BME280;7185;51.854;6.622;2022-12-01T10:21:14;102487.47;;;7.71;100.00
14204;BME280;7185;51.854;6.622;2022-12-01T10:23:57;102495.34;;;7.74;100.00
14204;BME280;7185;51.854;6.622;2022-12-01T10:26:35;102499.69;;;7.72;100.00
14204;BME280;7185;51.854;6.622;2022-12-01T10:29:15;102496.13;;;7.70;100.00
14204;BME280;7185;51.854;6.622;2022-12-01T10:31:53;102492.78;;;7.75;100.00
14204;BME280;7185;51.854;6.622;2022-12-01T10:34:28;102498.59;;;7.63;100.00
14204;BME280;7185;51.854;6.622;2022-12-01T10:37:01;102488.50;;;7.79;100.00
14204;BME280;7185;51.854;6.622;2022-12-01T10:39:35;102493.72;;;7.79;100.00
14204;BME280;7185;51.854;6.622;2022-12-01T10:42:12;102493.91;;;7.85;100.00
14204;BME280;7185;51.854;6.622;2022-12-01T10:44:49;102484.91;;;7.74;100.00
14204;BME280;7185;51.854;6.622;2022-12-01T10:47:23;102486.78;;;7.79;100.00
14204;BME280;7185;51.854;6.622;2022-12-01T10:49:57;102484.06;;;7.75;100.00
14204;BME280;7185;51.854;6.622;2022-12-01T10:52:34;102485.06;;;7.80;100.00
14204;BME280;7185;51.854;6.622;2022-12-01T10:55:26;102488.44;;;7.76;100.00
14204;BME280;7185;51.854;6.622;2022-12-01T10:57:59;102479.50;;;7.64;100.00
14204;BME280;7185;51.854;6.622;2022-12-01T11:00:36;102486.16;;;7.90;100.00
14204;BME280;7185;51.854;6.622;2022-12-01T11:03:16;102486.22;;;7.91;100.00
14204;BME280;7185;51.854;6.622;2022-12-01T11:05:51;102483.59;;;7.91;100.00
14204;BME280;7185;51.854;6.622;2022-12-01T11:08:24;102481.88;;;7.93;100.00
14204;BME280;7185;51.854;6.622;2022-12-01T11:10:58;102481.09;;;7.96;100.00
14204;BME280;7185;51.854;6.622;2022-12-01T11:13:34;102482.94;;;8.02;100.00
14204;BME280;7185;51.854;6.622;2022-12-01T11:16:35;102483.72;;;7.97;100.00
14204;BME280;7185;51.854;6.622;2022-12-01T11:19:17;102477.53;;;7.92;100.00
14204;BME280;7185;51.854;6.622;2022-12-01T11:21:50;102479.59;;;8.07;100.00
14204;BME280;7185;51.854;6.622;2022-12-01T11:24:28;102481.28;;;8.05;100.00
14204;BME280;7185;51.854;6.622;2022-12-01T11:27:00;102476.81;;;8.00;100.00
14204;BME280;7185;51.854;6.622;2022-12-01T11:29:34;102475.78;;;7.93;100.00
14204;BME280;7185;51.854;6.622;2022-12-01T11:32:15;102482.94;;;8.02;100.00
14204;BME280;7185;51.854;6.622;2022-12-01T11:34:50;102477.81;;;8.06;100.00
14204;BME280;7185;51.854;6.622;2022-12-01T11:37:25;102474.38;;;8.07;100.00
14204;BME280;7185;51.854;6.622;2022-12-01T11:40:12;102475.91;;;7.97;100.00
14204;BME280;7185;51.854;6.622;2022-12-01T11:42:48;102469.00;;;8.01;100.00
14204;BME280;7185;51.854;6.622;2022-12-01T11:45:26;102474.22;;;8.01;100.00
14204;BME280;7185;51.854;6.622;2022-12-01T11:48:05;102472.56;;;8.05;100.00
14204;BME280;7185;51.854;6.622;2022-12-01T11:50:41;102462.63;;;7.88;100.00
14204;BME280;7185;51.854;6.622;2022-12-01T11:53:25;102465.34;;;7.93;100.00
14204;BME280;7185;51.854;6.622;2022-12-01T11:56:17;102463.59;;;7.55;100.00
14204;BME280;7185;51.854;6.622;2022-12-01T11:58:55;102459.84;;;7.80;100.00
14204;BME280;7185;51.854;6.622;2022-12-01T12:01:36;102456.41;;;7.83;100.00
14204;BME280;7185;51.854;6.622;2022-12-01T12:04:23;102459.16;;;7.89;100.00
14204;BME280;7185;51.854;6.622;2022-12-01T12:07:01;102464.25;;;7.83;100.00
14204;BME280;7185;51.854;6.622;2022-12-01T12:09:48;102456.66;;;7.94;100.00
14204;BME280;7185;51.854;6.622;2022-12-01T12:12:42;102455.72;;;7.92;100.00
14204;BME280;7185;51.854;6.622;2022-12-01T12:15:24;102448.75;;;7.91;100.00
14204;BME280;7185;51.854;6.622;2022-12-01T12:18:19;102445.16;;;7.87;100.00
14204;BME280;7185;51.854;6.622;2022-12-01T12:21:02;102450.69;;;8.00;100.00
14204;BME280;7185;51.854;6.622;2022-12-01T12:24:03;102449.69;;;7.94;100.00
14204;BME280;7185;51.854;6.622;2022-12-01T12:26:43;102442.66;;;7.92;100.00
14204;BME280;7185;51.854;6.622;2022-12-01T12:29:34;102454.50;;;7.76;100.00
14204;BME280;7185;51.854;6.622;2022-12-01T12:32:20;102445.63;;;7.69;100.00
14204;BME280;7185;51.854;6.622;2022-12-01T12:35:00;102440.94;;;7.54;100.00
14204;BME280;7185;51.854;6.622;2022-12-01T12:37:44;102434.88;;;7.55;100.00
14204;BME280;7185;51.854;6.622;2022-12-01T12:40:28;102445.94;;;7.45;100.00
14204;BME280;7185;51.854;6.622;2022-12-01T12:43:17;102438.56;;;7.63;100.00
14204;BME280;7185;51.854;6.622;2022-12-01T12:45:59;102439.31;;;7.59;100.00
14204;BME280;7185;51.854;6.622;2022-12-01T12:48:50;102440.25;;;7.61;100.00
14204;BME280;7185;51.854;6.622;2022-12-01T12:51:27;102438.41;;;7.57;100.00
14204;BME280;7185;51.854;6.622;2022-12-01T12:54:12;102439.03;;;7.47;100.00
14204;BME280;7185;51.854;6.622;2022-12-01T12:56:51;102442.84;;;7.61;100.00
14204;BME280;7185;51.854;6.622;2022-12-01T12:59:29;102436.53;;;7.52;100.00
14204;BME280;7185;51.854;6.622;2022-12-01T13:02:09;102439.41;;;7.62;100.00
14204;BME280;7185;51.854;6.622;2022-12-01T13:04:49;102441.03;;;7.57;100.00
14204;BME280;7185;51.854;6.622;2022-12-01T13:07:37;102437.03;;;7.37;100.00
14204;BME280;7185;51.854;6.622;2022-12-01T13:10:19;102437.50;;;7.57;100.00
14204;BME280;7185;51.854;6.622;2022-12-01T13:12:58;102435.63;;;7.51;100.00
14204;BME280;7185;51.854;6.622;2022-12-01T13:15:32;102429.63;;;7.54;100.00
14204;BME280;7185;51.854;6.622;2022-12-01T13:18:11;102425.06;;;7.45;100.00
14204;BME280;7185;51.854;6.622;2022-12-01T13:20:47;102429.66;;;7.55;100.00
14204;BME280;7185;51.854;6.622;2022-12-01T13:23:20;102423.66;;;7.59;100.00
14204;BME280;7185;51.854;6.622;2022-12-01T13:25:56;102420.06;;;7.54;100.00
14204;BME280;7185;51.854;6.622;2022-12-01T13:28:34;102418.28;;;7.53;100.00
14204;BME280;7185;51.854;6.622;2022-12-01T13:31:09;102410.69;;;7.62;100.00
14204;BME280;7185;51.854;6.622;2022-12-01T13:33:52;102417.91;;;7.74;100.00
14204;BME280;7185;51.854;6.622;2022-12-01T13:36:25;102419.50;;;7.68;100.00
14204;BME280;7185;51.854;6.622;2022-12-01T13:38:58;102412.69;;;7.74;100.00
14204;BME280;7185;51.854;6.622;2022-12-01T13:41:35;102424.00;;;7.73;100.00
14204;BME280;7185;51.854;6.622;2022-12-01T13:44:20;102411.88;;;7.77;100.00
14204;BME280;7185;51.854;6.622;2022-12-01T13:46:56;102422.28;;;7.75;100.00
14204;BME280;7185;51.854;6.622;2022-12-01T13:49:37;102411.66;;;7.68;100.00